Terminal Aerodrome Forecast
Issued by NWS

Home | Current Version | Previous Version | Text Only | Print | Product List | Glossary On
Versions: 1 2 3 4 5 6 7 8 9 10 11 12 13 14
000
FTUS44 KTSA 231726
TAFBVO
TAF
KBVO 231726Z 2318/2418 17018G26KT P6SM SCT028
     FM240000 17012G20KT P6SM SCT250
     FM240800 17013G20KT P6SM OVC100
     FM241200 17013G20KT P6SM VCSH OVC050
     FM241500 17015G25KT P6SM OVC025=

USA.gov is the U.S. government's official web portal to all federal, state and local government web resources and services.